createdAt,value
2022-12-31T00:00:48.747Z,94.86
2022-12-31T00:03:17.500Z,94.87
2022-12-31T00:05:49.163Z,95.31
2022-12-31T00:08:18.065Z,95.09
2022-12-31T00:10:44.661Z,94.26
2022-12-31T00:13:12.877Z,94.79
2022-12-31T00:15:40.400Z,94.76
2022-12-31T00:18:08.058Z,95.14
2022-12-31T00:20:34.970Z,95.00
2022-12-31T00:23:03.961Z,95.51
2022-12-31T00:25:32.805Z,95.56
2022-12-31T00:27:59.352Z,95.15
2022-12-31T00:30:28.081Z,95.04
2022-12-31T00:32:57.154Z,94.96
2022-12-31T00:35:23.765Z,94.59
2022-12-31T00:37:53.060Z,94.43
2022-12-31T00:40:19.731Z,94.53
2022-12-31T00:42:49.017Z,94.26
2022-12-31T00:45:17.886Z,94.69
2022-12-31T00:47:46.935Z,94.38
2022-12-31T00:50:16.066Z,94.89
2022-12-31T00:52:42.787Z,94.84
2022-12-31T00:55:09.528Z,94.88
2022-12-31T00:57:38.346Z,95.28
2022-12-31T01:00:07.687Z,95.45
2022-12-31T01:02:34.275Z,95.20
2022-12-31T01:05:03.455Z,94.51
2022-12-31T01:07:32.306Z,94.29
2022-12-31T01:09:58.830Z,94.57
2022-12-31T01:12:25.461Z,94.40
2022-12-31T01:14:54.123Z,94.32
2022-12-31T01:17:20.911Z,93.51
2022-12-31T01:19:47.562Z,93.44
2022-12-31T01:22:14.124Z,94.17
2022-12-31T01:24:40.641Z,93.92
2022-12-31T01:27:07.210Z,93.96
2022-12-31T01:29:36.260Z,93.61
2022-12-31T01:32:02.937Z,93.41
2022-12-31T01:34:32.538Z,93.83
2022-12-31T01:37:01.425Z,93.69
2022-12-31T01:39:28.035Z,94.71
2022-12-31T01:41:56.901Z,94.37
2022-12-31T01:44:23.469Z,94.30
2022-12-31T01:47:00.503Z,94.24
2022-12-31T01:49:36.752Z,94.17
2022-12-31T01:52:18.410Z,94.15
2022-12-31T01:54:49.687Z,94.44
2022-12-31T01:57:17.323Z,94.46
2022-12-31T01:59:45.405Z,94.98
2022-12-31T02:02:15.746Z,95.00
2022-12-31T02:04:44.945Z,95.32
2022-12-31T02:07:12.801Z,95.27
2022-12-31T02:09:41.698Z,94.71
2022-12-31T02:12:10.029Z,94.67
2022-12-31T02:14:58.976Z,94.73
2022-12-31T02:17:40.888Z,94.38
2022-12-31T02:20:19.365Z,94.13
2022-12-31T02:23:23.306Z,94.22
2022-12-31T02:25:56.037Z,95.07
2022-12-31T02:28:43.994Z,94.48
2022-12-31T02:31:28.969Z,94.97
2022-12-31T02:34:02.401Z,94.90
2022-12-31T02:36:37.683Z,95.06
2022-12-31T02:39:06.363Z,95.23
2022-12-31T02:41:51.366Z,95.02
2022-12-31T02:44:25.672Z,94.59
2022-12-31T02:47:10.585Z,94.83
2022-12-31T02:49:43.419Z,94.69
2022-12-31T02:52:32.059Z,95.26
2022-12-31T02:55:30.650Z,95.72
2022-12-31T02:58:13.593Z,95.66
2022-12-31T03:01:10.130Z,95.77
2022-12-31T03:03:40.519Z,95.09
2022-12-31T03:06:09.027Z,95.44
2022-12-31T03:08:55.605Z,94.65
2022-12-31T03:11:40.795Z,94.35
2022-12-31T03:14:07.493Z,93.31
2022-12-31T03:16:35.056Z,93.31
2022-12-31T03:19:20.034Z,93.45
2022-12-31T03:22:04.945Z,93.06
2022-12-31T03:24:49.719Z,92.86
2022-12-31T03:27:18.389Z,94.30
2022-12-31T03:29:44.921Z,93.80
2022-12-31T03:32:13.816Z,93.33
2022-12-31T03:34:40.353Z,92.83
2022-12-31T03:37:11.966Z,92.96
2022-12-31T03:39:43.007Z,92.99
2022-12-31T03:42:09.575Z,92.39
2022-12-31T03:44:39.621Z,92.35
2022-12-31T03:47:06.150Z,93.09
2022-12-31T03:49:32.712Z,94.02
2022-12-31T03:51:59.738Z,94.62
2022-12-31T03:54:26.419Z,95.24
2022-12-31T03:56:58.325Z,95.48
2022-12-31T03:59:28.914Z,94.48
2022-12-31T04:02:00.333Z,94.61
2022-12-31T04:04:29.245Z,94.37
2022-12-31T04:06:58.133Z,94.17
2022-12-31T04:09:27.143Z,94.31
2022-12-31T04:11:55.997Z,94.36
2022-12-31T04:14:22.544Z,94.47
2022-12-31T04:16:49.115Z,94.38
2022-12-31T04:19:16.542Z,94.21
2022-12-31T04:21:43.195Z,94.27
2022-12-31T04:24:09.765Z,94.64
2022-12-31T04:26:36.842Z,94.22
2022-12-31T04:29:04.232Z,95.28
2022-12-31T04:31:33.148Z,95.66
2022-12-31T04:34:01.950Z,95.75
2022-12-31T04:36:31.346Z,95.47
2022-12-31T04:38:58.002Z,95.33
2022-12-31T04:41:27.214Z,94.71
2022-12-31T04:43:58.250Z,94.29
2022-12-31T04:46:28.270Z,94.65
2022-12-31T04:48:58.186Z,94.68
2022-12-31T04:51:26.461Z,94.47
2022-12-31T04:53:55.503Z,94.46
2022-12-31T04:56:24.788Z,94.99
2022-12-31T04:58:54.287Z,95.02
2022-12-31T05:01:21.753Z,95.52
2022-12-31T05:03:51.933Z,95.67
2022-12-31T05:06:24.474Z,96.04
2022-12-31T05:08:51.147Z,96.77
2022-12-31T05:11:17.816Z,95.98
2022-12-31T05:13:44.643Z,96.23
2022-12-31T05:16:11.309Z,96.27
2022-12-31T05:18:40.705Z,95.80
2022-12-31T05:21:09.530Z,95.51
2022-12-31T05:23:36.171Z,95.92
2022-12-31T05:26:02.720Z,95.90
2022-12-31T05:28:32.648Z,95.58
2022-12-31T05:31:01.478Z,95.40
2022-12-31T05:33:31.055Z,96.08
2022-12-31T05:36:00.162Z,96.08
2022-12-31T05:38:26.745Z,96.76
2022-12-31T05:41:00.777Z,96.38
2022-12-31T05:43:30.328Z,96.64
2022-12-31T05:45:57.483Z,96.40
2022-12-31T05:48:26.657Z,96.52
2022-12-31T05:50:53.280Z,96.48
2022-12-31T05:53:22.409Z,96.51
2022-12-31T05:55:51.184Z,96.46
2022-12-31T05:58:17.855Z,96.06
2022-12-31T06:00:47.019Z,96.49
2022-12-31T06:03:15.979Z,95.56
2022-12-31T06:05:43.626Z,95.83
2022-12-31T06:08:10.879Z,95.22
2022-12-31T06:10:37.836Z,95.38
2022-12-31T06:13:04.525Z,95.75
2022-12-31T06:15:33.408Z,95.05
2022-12-31T06:18:00.050Z,95.21
2022-12-31T06:20:31.383Z,95.09
2022-12-31T06:23:02.761Z,94.37
2022-12-31T06:25:34.632Z,94.57
2022-12-31T06:28:01.273Z,94.17
2022-12-31T06:30:27.830Z,93.25
2022-12-31T06:32:55.763Z,93.80
2022-12-31T06:35:22.322Z,93.61
2022-12-31T06:37:51.632Z,93.85
2022-12-31T06:40:20.249Z,93.70
2022-12-31T06:42:52.229Z,92.67
2022-12-31T06:45:21.222Z,92.96
2022-12-31T06:47:52.784Z,93.29
2022-12-31T06:50:21.717Z,93.18
2022-12-31T06:52:48.274Z,93.23
2022-12-31T06:55:18.283Z,93.59
2022-12-31T06:57:45.078Z,93.33
2022-12-31T07:00:12.358Z,93.34
2022-12-31T07:02:38.975Z,93.61
2022-12-31T07:05:34.344Z,93.67
2022-12-31T07:08:15.904Z,94.18
2022-12-31T07:10:51.191Z,94.08
2022-12-31T07:13:47.388Z,94.07
2022-12-31T07:16:32.016Z,93.77
2022-12-31T07:19:19.764Z,94.08
2022-12-31T07:21:49.327Z,94.72
2022-12-31T07:24:19.409Z,95.40
2022-12-31T07:26:56.433Z,91.82
2022-12-31T07:29:38.107Z,90.25
2022-12-31T07:32:26.282Z,89.47
2022-12-31T07:35:35.266Z,90.69
2022-12-31T07:38:23.276Z,90.40
2022-12-31T07:41:17.409Z,90.66
2022-12-31T07:43:43.928Z,91.07
2022-12-31T07:46:28.683Z,91.12
2022-12-31T07:48:58.579Z,91.75
2022-12-31T07:51:28.363Z,92.50
2022-12-31T07:53:59.774Z,92.50
2022-12-31T07:56:29.400Z,92.27
2022-12-31T07:59:04.683Z,92.38
2022-12-31T08:01:49.480Z,92.42
2022-12-31T08:04:28.653Z,91.70
2022-12-31T08:07:06.595Z,91.46
2022-12-31T08:09:45.302Z,92.01
2022-12-31T08:12:15.325Z,91.23
2022-12-31T08:14:49.778Z,91.35
2022-12-31T08:17:20.822Z,91.83
2022-12-31T08:19:47.770Z,91.58
2022-12-31T08:22:39.150Z,91.81
2022-12-31T08:25:34.754Z,92.66
2022-12-31T08:28:19.649Z,91.93
2022-12-31T08:31:05.816Z,91.40
2022-12-31T08:33:50.811Z,91.07
2022-12-31T08:36:28.967Z,90.64
2022-12-31T08:39:15.284Z,90.81
2022-12-31T08:41:44.321Z,90.97
2022-12-31T08:44:25.147Z,90.66
2022-12-31T08:47:04.101Z,90.48
2022-12-31T08:49:37.891Z,90.64
2022-12-31T08:52:15.254Z,90.03
2022-12-31T08:54:42.133Z,90.09
2022-12-31T08:57:23.664Z,90.09
2022-12-31T09:00:02.310Z,89.40
2022-12-31T09:02:48.421Z,88.49
2022-12-31T09:05:51.037Z,88.90
2022-12-31T09:08:23.312Z,88.49
2022-12-31T09:11:32.704Z,89.57
2022-12-31T09:14:24.339Z,90.33
2022-12-31T09:17:38.129Z,89.54
2022-12-31T09:20:05.736Z,89.24
2022-12-31T09:22:40.163Z,88.52
2022-12-31T09:25:09.947Z,88.04
2022-12-31T09:27:48.284Z,88.80
2022-12-31T09:30:18.255Z,87.92
2022-12-31T09:33:03.640Z,88.71
2022-12-31T09:35:40.719Z,88.96
2022-12-31T09:38:53.988Z,89.16
2022-12-31T09:41:45.729Z,88.69
2022-12-31T09:44:28.842Z,87.67
2022-12-31T09:47:20.479Z,87.03
2022-12-31T09:50:16.110Z,87.38
2022-12-31T09:53:19.061Z,88.39
2022-12-31T09:55:55.236Z,88.44
2022-12-31T09:58:54.006Z,88.91
2022-12-31T10:05:32.262Z,87.55
2022-12-31T10:08:23.141Z,86.86
2022-12-31T10:14:47.119Z,86.66
2022-12-31T10:17:14.070Z,86.41
2022-12-31T10:20:31.180Z,86.50
2022-12-31T10:23:19.342Z,87.47
2022-12-31T10:26:04.160Z,87.23
2022-12-31T10:28:58.398Z,90.99
2022-12-31T10:31:50.001Z,87.56
2022-12-31T10:34:46.600Z,85.34
2022-12-31T10:37:24.237Z,84.02
2022-12-31T10:40:17.798Z,84.99
2022-12-31T10:43:35.416Z,85.94
2022-12-31T10:46:37.896Z,85.37
2022-12-31T10:49:23.034Z,85.98
2022-12-31T10:52:26.010Z,86.33
2022-12-31T10:55:01.848Z,85.59
2022-12-31T10:57:37.729Z,85.95
2022-12-31T11:00:07.399Z,85.52
2022-12-31T11:03:35.544Z,85.72
2022-12-31T11:06:31.370Z,84.85
2022-12-31T11:09:12.681Z,85.87
2022-12-31T11:11:50.986Z,85.68
2022-12-31T11:14:38.596Z,86.89
2022-12-31T11:17:26.968Z,87.18
2022-12-31T11:20:17.305Z,85.62
2022-12-31T11:23:10.066Z,85.92
2022-12-31T11:26:03.912Z,84.87
2022-12-31T11:28:30.336Z,84.87
2022-12-31T11:31:24.735Z,85.83
2022-12-31T11:34:03.884Z,85.82
2022-12-31T11:36:32.651Z,85.37
2022-12-31T11:39:27.281Z,85.19
2022-12-31T11:42:19.173Z,84.55
2022-12-31T11:45:16.840Z,84.73
2022-12-31T11:51:13.055Z,84.13
2022-12-31T11:53:57.611Z,82.87
2022-12-31T11:56:28.417Z,83.12
2022-12-31T11:58:56.244Z,83.14
2022-12-31T12:01:43.943Z,82.88
2022-12-31T12:04:12.792Z,82.85
2022-12-31T12:06:40.870Z,82.18
2022-12-31T12:09:14.464Z,82.73
2022-12-31T12:11:41.476Z,83.33
2022-12-31T12:14:20.159Z,83.86
2022-12-31T12:16:47.073Z,83.35
2022-12-31T12:19:20.780Z,83.43
2022-12-31T12:21:52.150Z,83.62
2022-12-31T12:24:29.700Z,83.14
2022-12-31T12:26:59.104Z,82.53
2022-12-31T12:29:43.833Z,82.27
2022-12-31T12:32:17.815Z,83.12
2022-12-31T12:34:49.632Z,83.12
2022-12-31T12:37:37.098Z,83.13
2022-12-31T12:40:18.218Z,83.19
2022-12-31T12:42:56.390Z,82.41
2022-12-31T12:45:36.482Z,82.00
2022-12-31T12:48:13.417Z,81.39
2022-12-31T12:50:47.521Z,81.01
2022-12-31T12:53:52.257Z,81.00
2022-12-31T12:56:46.629Z,81.27
2022-12-31T12:59:15.924Z,81.89
2022-12-31T13:01:50.656Z,81.09
2022-12-31T13:04:34.900Z,80.46
2022-12-31T13:07:40.342Z,82.80
2022-12-31T13:10:21.802Z,81.07
2022-12-31T13:15:56.729Z,80.93
2022-12-31T13:18:31.731Z,79.96
2022-12-31T13:21:15.806Z,79.57
2022-12-31T13:31:07.163Z,80.13
2022-12-31T13:33:42.897Z,79.08
2022-12-31T13:36:20.270Z,80.57
2022-12-31T13:38:51.446Z,80.66
2022-12-31T13:41:17.967Z,80.26
2022-12-31T13:43:59.948Z,81.25
2022-12-31T13:46:34.389Z,81.09
2022-12-31T13:49:05.436Z,80.57
2022-12-31T13:51:51.722Z,80.57
2022-12-31T13:54:24.767Z,81.01
2022-12-31T13:56:53.348Z,80.71
2022-12-31T13:59:29.496Z,80.56
2022-12-31T14:02:02.869Z,80.71
2022-12-31T14:04:53.364Z,80.84
2022-12-31T14:07:29.111Z,81.00
2022-12-31T14:10:01.778Z,81.71
2022-12-31T14:12:47.655Z,81.68
2022-12-31T14:15:24.037Z,81.79
2022-12-31T14:17:55.887Z,81.92
2022-12-31T14:20:28.935Z,82.38
2022-12-31T14:23:02.815Z,81.44
2022-12-31T14:25:34.259Z,82.12
2022-12-31T14:28:05.446Z,82.15
2022-12-31T14:30:41.922Z,81.41
2022-12-31T14:33:26.934Z,83.51
2022-12-31T14:36:10.190Z,81.43
2022-12-31T14:39:12.341Z,81.65
2022-12-31T14:41:44.909Z,81.48
2022-12-31T14:44:14.653Z,81.94
2022-12-31T14:46:50.020Z,82.53
2022-12-31T14:49:30.434Z,83.42
2022-12-31T14:52:16.347Z,89.39
2022-12-31T14:54:42.959Z,81.87
2022-12-31T14:57:21.777Z,82.37
2022-12-31T14:59:56.339Z,82.73
2022-12-31T15:02:33.414Z,82.31
2022-12-31T15:05:15.934Z,83.35
2022-12-31T15:07:48.792Z,82.82
2022-12-31T15:10:39.683Z,83.29
2022-12-31T15:13:18.176Z,83.68
2022-12-31T15:15:56.931Z,83.75
2022-12-31T15:18:28.470Z,83.87
2022-12-31T15:21:14.929Z,83.67
2022-12-31T15:23:43.824Z,83.24
2022-12-31T15:26:31.244Z,83.44
2022-12-31T15:29:08.436Z,83.89
2022-12-31T15:31:48.852Z,83.99
2022-12-31T15:34:24.755Z,83.99
2022-12-31T15:36:57.138Z,83.68
2022-12-31T15:39:57.088Z,84.62
2022-12-31T15:42:47.155Z,84.63
2022-12-31T15:45:28.498Z,85.01
2022-12-31T15:48:01.357Z,84.75
2022-12-31T15:50:31.234Z,84.43
2022-12-31T15:53:03.672Z,84.68
2022-12-31T15:55:33.460Z,84.90
2022-12-31T15:58:15.961Z,84.87
2022-12-31T16:01:06.124Z,85.47
2022-12-31T16:03:36.457Z,85.36
2022-12-31T16:06:17.305Z,85.48
2022-12-31T16:08:47.926Z,84.52
2022-12-31T16:11:20.635Z,84.68
2022-12-31T16:13:50.459Z,84.97
2022-12-31T16:16:28.896Z,84.83
2022-12-31T16:19:02.729Z,84.51
2022-12-31T16:21:34.211Z,84.61
2022-12-31T16:24:02.344Z,84.45
2022-12-31T16:26:36.632Z,84.50
2022-12-31T16:29:08.873Z,85.05
2022-12-31T16:31:37.800Z,85.89
2022-12-31T16:34:07.378Z,86.39
2022-12-31T16:36:39.166Z,87.99
2022-12-31T16:39:36.503Z,87.00
2022-12-31T16:42:22.393Z,86.30
2022-12-31T16:44:50.757Z,86.32
2022-12-31T16:47:40.208Z,85.16
2022-12-31T16:50:20.418Z,84.27
2022-12-31T16:52:50.545Z,84.13
2022-12-31T16:55:21.376Z,84.54
2022-12-31T16:58:00.306Z,85.01
2022-12-31T17:00:27.608Z,84.19
2022-12-31T17:03:07.343Z,84.38
2022-12-31T17:05:36.254Z,84.85
2022-12-31T17:08:25.113Z,84.72
2022-12-31T17:10:54.034Z,85.53
2022-12-31T17:13:29.790Z,85.97
2022-12-31T17:15:58.683Z,85.63
2022-12-31T17:18:33.813Z,84.52
2022-12-31T17:21:10.187Z,85.11
2022-12-31T17:23:40.813Z,85.64
2022-12-31T17:26:12.136Z,85.15
2022-12-31T17:28:49.849Z,84.47
2022-12-31T17:31:25.267Z,85.38
2022-12-31T17:33:57.335Z,85.38
2022-12-31T17:36:26.381Z,84.80
2022-12-31T17:38:53.146Z,85.33
2022-12-31T17:41:29.663Z,84.42
2022-12-31T17:44:00.047Z,84.81
2022-12-31T17:46:26.976Z,85.59
2022-12-31T17:48:59.342Z,84.94
2022-12-31T17:51:28.101Z,85.08
2022-12-31T17:54:00.089Z,85.04
2022-12-31T17:56:29.018Z,85.13
2022-12-31T17:58:55.916Z,85.47
2022-12-31T18:01:23.448Z,86.50
2022-12-31T18:03:52.573Z,87.29
2022-12-31T18:06:22.126Z,87.17
2022-12-31T18:08:53.184Z,86.66
2022-12-31T18:11:26.989Z,86.23
2022-12-31T18:13:54.589Z,86.38
2022-12-31T18:16:24.174Z,85.72
2022-12-31T18:18:56.305Z,86.04
2022-12-31T18:21:27.996Z,86.96
2022-12-31T18:26:24.839Z,86.14
2022-12-31T18:29:01.708Z,86.28
2022-12-31T18:31:30.172Z,85.68
2022-12-31T18:34:08.679Z,86.25
2022-12-31T18:36:35.461Z,85.95
2022-12-31T18:39:05.751Z,86.71
2022-12-31T18:41:49.547Z,86.97
2022-12-31T18:44:17.387Z,86.75
2022-12-31T18:46:44.012Z,86.81
2022-12-31T18:49:12.798Z,88.49
2022-12-31T18:51:41.350Z,87.93
2022-12-31T18:54:11.152Z,88.04
2022-12-31T18:56:43.203Z,88.83
2022-12-31T18:59:15.597Z,87.94
2022-12-31T19:01:42.265Z,87.92
2022-12-31T19:04:26.535Z,90.02
2022-12-31T19:06:54.250Z,90.91
2022-12-31T19:09:43.875Z,91.36
2022-12-31T19:12:12.772Z,91.54
2022-12-31T19:14:39.544Z,91.97
2022-12-31T19:19:38.757Z,91.90
2022-12-31T19:22:05.871Z,90.59
2022-12-31T19:28:25.845Z,90.38
2022-12-31T19:30:55.812Z,89.22
2022-12-31T19:33:22.777Z,88.64
2022-12-31T19:35:49.714Z,88.50
2022-12-31T19:38:28.748Z,87.82
2022-12-31T19:40:55.537Z,88.06
2022-12-31T19:43:31.251Z,89.78
2022-12-31T19:46:07.955Z,90.44
2022-12-31T19:48:34.574Z,89.23
2022-12-31T19:51:01.124Z,87.74
2022-12-31T19:53:30.995Z,87.45
2022-12-31T19:55:57.628Z,87.24
2022-12-31T19:58:27.914Z,86.55
2022-12-31T20:01:02.854Z,86.61
2022-12-31T20:03:32.564Z,87.30
2022-12-31T20:06:08.003Z,88.38
2022-12-31T20:08:36.020Z,89.42
2022-12-31T20:11:24.884Z,89.85
2022-12-31T20:13:53.924Z,90.92
2022-12-31T20:16:21.766Z,91.45
2022-12-31T20:18:50.551Z,91.88
2022-12-31T20:21:21.873Z,92.06
2022-12-31T20:23:49.915Z,92.03
2022-12-31T20:26:20.505Z,91.96
2022-12-31T20:28:47.825Z,91.94
2022-12-31T20:31:17.281Z,92.13
2022-12-31T20:33:46.780Z,91.82
2022-12-31T20:36:19.511Z,90.81
2022-12-31T20:38:46.350Z,90.17
2022-12-31T20:41:21.316Z,89.14
2022-12-31T20:43:48.784Z,90.13
2022-12-31T20:46:21.949Z,89.74
2022-12-31T20:48:50.865Z,89.28
2022-12-31T20:51:22.509Z,88.63
2022-12-31T20:54:01.074Z,87.91
2022-12-31T20:56:38.372Z,87.74
2022-12-31T20:59:06.660Z,87.74
2022-12-31T21:04:38.429Z,89.04
2022-12-31T21:07:07.327Z,87.44
2022-12-31T21:09:33.962Z,86.99
2022-12-31T21:12:19.081Z,87.12
2022-12-31T21:14:45.702Z,87.44
2022-12-31T21:17:12.232Z,87.15
2022-12-31T21:19:41.771Z,86.26
2022-12-31T21:22:08.386Z,86.64
2022-12-31T21:24:35.049Z,86.71
2022-12-31T21:27:03.946Z,88.47
2022-12-31T21:29:34.508Z,88.91
2022-12-31T21:32:04.522Z,88.60
2022-12-31T21:34:33.290Z,87.64
2022-12-31T21:36:59.884Z,87.00
2022-12-31T21:39:31.285Z,86.76
2022-12-31T21:42:03.184Z,88.43
2022-12-31T21:44:31.979Z,90.64
2022-12-31T21:47:39.765Z,88.85
2022-12-31T21:50:10.757Z,89.96
2022-12-31T21:52:37.356Z,89.50
2022-12-31T21:55:23.742Z,88.77
2022-12-31T21:58:24.617Z,88.71
2022-12-31T22:00:58.518Z,90.63
2022-12-31T22:03:31.833Z,91.43
2022-12-31T22:06:02.841Z,89.64
2022-12-31T22:08:30.565Z,88.60
2022-12-31T22:11:00.272Z,87.75
2022-12-31T22:13:30.184Z,88.78
2022-12-31T22:16:04.188Z,87.80
2022-12-31T22:18:35.028Z,87.72
2022-12-31T22:21:09.604Z,87.84
2022-12-31T22:23:43.317Z,87.21
2022-12-31T22:26:13.221Z,88.33
2022-12-31T22:28:42.323Z,89.19
2022-12-31T22:31:21.360Z,90.61
2022-12-31T22:33:50.509Z,89.73
2022-12-31T22:36:19.852Z,89.85
2022-12-31T22:38:50.821Z,88.08
2022-12-31T22:41:27.210Z,88.02
2022-12-31T22:44:03.723Z,88.64
2022-12-31T22:46:32.569Z,88.54
2022-12-31T22:49:03.333Z,88.51
2022-12-31T22:51:56.670Z,89.13
2022-12-31T22:54:23.012Z,88.83
2022-12-31T22:56:57.071Z,88.69
2022-12-31T22:59:24.516Z,89.14
2022-12-31T23:01:55.915Z,89.55
2022-12-31T23:04:27.783Z,89.14
2022-12-31T23:06:59.804Z,89.19
2022-12-31T23:09:47.473Z,88.84
2022-12-31T23:12:14.138Z,88.58
2022-12-31T23:15:04.793Z,88.30
2022-12-31T23:17:52.787Z,88.33
2022-12-31T23:20:41.135Z,88.08
2022-12-31T23:23:13.983Z,88.14
2022-12-31T23:25:51.210Z,88.00
2022-12-31T23:28:27.933Z,88.28
2022-12-31T23:30:54.607Z,87.40
2022-12-31T23:33:26.392Z,87.68
2022-12-31T23:36:06.428Z,87.60
2022-12-31T23:38:36.066Z,87.53
2022-12-31T23:41:15.534Z,88.15
2022-12-31T23:43:44.346Z,88.19
2022-12-31T23:46:12.801Z,88.70
2022-12-31T23:48:42.076Z,88.59
2022-12-31T23:51:11.420Z,87.51
2022-12-31T23:53:40.480Z,87.56
2022-12-31T23:56:16.252Z,87.37
2022-12-31T23:58:47.604Z,86.79
